Latest Coastal Weather Observations for Warruwi

IDD60701

Issued at 8:21 pm CST Saturday 22 February 2020 (issued every 10 minutes, with the page automatically refreshed every 10 minutes)

About coastal observations | Map of coastal stations | Coastal observations for NT | Marine services | Other Formats
Station Details ID: 014401 Name: WARRUWI AIRPORT Lat: -11.65 Lon: 133.38 Height: 19.2 m
Data from the previous 72 hours. | See also: Recent months at Warruwi
Date/Time
CST
Wind Sea
Height
m
Swell Vis
km
Cloud Weather Temp
°C
Press
hPa
Rain since
9am
mm
Dir  Spd
kts
Gust
kts
Height
m
Period
s
Dir
22/08:00pm WNW 7 12 - - - - - - - 28.4 1006.9 24.4
22/07:30pm WNW 5 9 - - - - - - - 28.4 1006.2 24.4
22/07:00pm WNW 6 11 - - - - - - - 28.5 1005.8 24.4
22/06:30pm NW 6 10 - - - - - - - 28.7 1005.2 24.4
22/06:00pm WNW 4 9 - - - - - - - 29.3 1005.2 24.4
22/05:30pm WNW 6 10 - - - - - - - 28.7 1004.8 24.4
22/05:00pm WNW 6 9 - - - - - - - 28.4 1004.5 24.4
22/04:30pm WNW 8 11 - - - - - - - 28.3 1004.9 24.4
22/04:00pm WNW 7 12 - - - - - - - 28.9 1005.3 24.4
22/03:30pm W 8 14 - - - - - - - 29.8 1005.4 24.4
22/03:00pm W 8 10 - - - - - - - 29.2 1005.8 24.4
22/02:30pm WNW 8 11 - - - - - - - 27.9 1006.1 24.4
22/02:00pm W 8 11 - - - - - - - 28.0 1006.6 24.4
22/01:30pm W 8 10 - - - - - - - 27.6 1007.1 24.4
22/01:00pm W 9 11 - - - - - - - 27.3 1007.4 24.4
22/12:30pm W 7 10 - - - - - - - 26.7 1007.8 24.4
22/12:00pm WSW 7 10 - - - - - - - 25.8 1008.6 24.4
22/11:30am WSW 9 12 - - - - - - - 24.9 1008.9 24.4
22/11:00am WSW 8 11 - - - - - - - 24.8 1008.8 24.4
22/10:30am WSW 5 9 - - - - - - - 24.1 1009.3 24.4
22/10:00am S 6 9 - - - - - - - 23.8 1009.5 24.2
22/09:30am SE 6 11 - - - - - - - 23.9 1009.7 23.8
22/09:00am E 5 11 - - - - - - Rain 25.8 1009.5 11.6
22/08:30am SSE 4 7 - - - - - - - 26.6 1009.4 9.8
22/08:00am SE 7 10 - - - - - - - 25.6 1008.9 9.8
22/07:30am SE 8 12 - - - - - - - 25.3 1008.6 9.8
22/07:00am SW 4 7 - - - - - - - 25.3 1007.8 9.8
22/06:30am SW 3 5 - - - - - - - 24.9 1007.4 9.8
22/06:00am SW 4 5 - - - - - - - 25.1 1007.0 9.8
22/05:30am WSW 4 5 - - - - - - - 25.2 1006.6 9.8
22/05:00am SW 4 7 - - - - - - - 25.3 1006.7 9.8
22/04:30am SW 5 9 - - - - - - - 25.2 1006.7 9.8
22/04:00am SW 3 5 - - - - - - - 25.1 1006.5 9.8
22/03:30am SW 5 8 - - - - - - - 25.5 1006.9 9.8
22/03:00am SW 5 7 - - - - - - - 25.3 1007.1 9.8
22/02:30am WSW 4 6 - - - - - - - 25.2 1007.5 9.8
22/02:00am WSW 5 7 - - - - - - - 25.2 1007.7 9.8
22/01:30am WSW 6 9 - - - - - - - 25.4 1008.1 9.8
22/01:00am WSW 8 12 - - - - - - - 25.3 1008.5 9.8
22/12:30am WSW 6 9 - - - - - - - 25.1 1008.5 9.8
22/12:00am WSW 6 8 - - - - - - - 25.3 1008.5 9.8
 
Date/Time
CST
Wind Sea
Height
m
Swell Vis
km
Cloud Weather Temp
°C
Press
hPa
Rain since
9am
mm
Dir  Spd
kts
Gust
kts
Height
m
Period
s
Dir
21/11:30pm WSW 6 9 - - - - - - - 25.4 1008.7 9.8
21/11:00pm WSW 6 9 - - - - - - - 25.7 1008.8 9.8
21/10:30pm WSW 4 5 - - - - - - - 25.4 1008.8 9.8
21/10:00pm WSW 5 6 - - - - - - - 25.2 1008.2 9.8
21/09:30pm WSW 3 5 - - - - - - - 24.8 1007.8 9.8
21/09:00pm W 4 6 - - - - - - - 24.7 1008.0 9.8
21/08:30pm WSW 6 8 - - - - - - - 24.3 1008.2 9.8
21/08:00pm SW 5 6 - - - - - - - 24.6 1008.3 9.8
21/07:30pm SW 5 9 - - - - - - - 25.0 1008.1 9.4
21/07:00pm SW 5 8 - - - - - - - 25.0 1008.0 8.8
21/06:30pm SSW 6 11 - - - - - - - 24.9 1008.2 7.8
21/06:00pm S 7 11 - - - - - - Rain 24.9 1007.6 5.0
21/05:30pm S 6 11 - - - - - - - 25.1 1007.1 2.4
21/05:00pm S 8 13 - - - - - - - 25.8 1006.8 0.6
21/04:30pm SSW 5 8 - - - - - - - 28.8 1006.5 0.4
21/04:00pm WSW 9 13 - - - - - - - 29.2 1006.2 0.4
21/03:30pm WSW 9 13 - - - - - - - 29.6 1006.3 0.4
21/03:00pm W 12 17 - - - - - - - 31.3 1005.8 0.4
21/02:30pm W 10 13 - - - - - - - 30.2 1006.2 0.4
21/02:00pm W 10 14 - - - - - - - 29.3 1006.6 0.4
21/01:30pm W 10 13 - - - - - - - 29.2 1007.1 0.0
21/01:00pm W 9 12 - - - - - - - 29.0 1007.6 0.0
21/12:30pm W 8 12 - - - - - - - 29.9 1008.0 0.0
21/12:00pm W 10 14 - - - - - - - 29.4 1008.5 0.0
21/11:30am W 9 12 - - - - - - - 29.7 1008.7 0.0
21/11:00am WSW 10 12 - - - - - - - 28.9 1009.1 0.0
21/10:30am WSW 9 13 - - - - - - - 28.3 1009.2 0.0
21/10:00am WSW 9 13 - - - - - - - 27.7 1009.3 0.0
21/09:30am WSW 7 11 - - - - - - - 26.8 1009.0 0.0
21/09:00am WSW 6 9 - - - - - - - 26.0 1008.4 31.4
21/08:30am SW 7 10 - - - - - - - 25.7 1007.9 31.4
21/08:00am SW 7 13 - - - - - - - 25.4 1007.3 31.4
21/07:30am SW 7 11 - - - - - - - 25.2 1006.8 31.4
21/07:00am SW 6 9 - - - - - - - 25.1 1006.3 31.4
21/06:30am SW 6 9 - - - - - - - 25.2 1006.2 31.4
21/06:00am SW 7 13 - - - - - - - 25.3 1006.2 31.4
21/05:30am SW 5 8 - - - - - - - 25.2 1006.0 31.4
21/05:00am SW 4 7 - - - - - - - 25.1 1006.5 31.4
21/04:30am SW 5 7 - - - - - - - 25.0 1006.5 31.4
21/04:00am SW 5 8 - - - - - - - 25.1 1006.5 31.4
21/03:30am WSW 6 9 - - - - - - - 25.2 1006.4 31.4
21/03:00am WSW 7 13 - - - - - - - 25.1 1006.5 31.4
21/02:30am WSW 7 11 - - - - - - - 24.6 1007.0 31.4
21/02:00am WSW 8 12 - - - - - - - 24.7 1007.7 31.4
21/01:30am WSW 9 13 - - - - - - - 24.7 1008.4 31.4
21/01:00am WSW 8 12 - - - - - - - 24.9 1008.1 31.4
21/12:30am WSW 6 8 - - - - - - - 24.7 1008.3 31.4
21/12:00am WSW 5 6 - - - - - - Recent precip. 24.7 1008.7 31.2
 
Date/Time
CST
Wind Sea
Height
m
Swell Vis
km
Cloud Weather Temp
°C
Press
hPa
Rain since
9am
mm
Dir  Spd
kts
Gust
kts
Height
m
Period
s
Dir
20/11:30pm WSW 6 8 - - - - - - - 24.9 1009.0 31.0
20/11:00pm WSW 5 8 - - - - - - - 24.6 1009.1 30.0
20/10:30pm WSW 5 6 - - - - - - - 24.6 1009.1 27.0
20/10:00pm WSW 3 4 - - - - - - - 24.3 1008.6 25.6
20/09:30pm CALM 0 0 - - - - - - - 24.0 1009.2 24.8
20/09:00pm NNW 2 5 - - - - - - Rain 23.5 1008.7 23.8
20/08:30pm SSW 7 12 - - - - - - - 23.4 1008.4 21.6
20/08:00pm S 7 13 - - - - - - - 25.5 1008.0 1.0
20/07:30pm NW 5 9 - - - - - - - 29.1 1006.9 0.0
20/07:00pm NW 5 11 - - - - - - - 29.1 1006.5 0.0
20/06:30pm NW 5 10 - - - - - - - 29.5 1005.8 0.0
20/06:00pm NW 5 10 - - - - - - - 30.1 1005.3 0.0
20/05:30pm NW 5 9 - - - - - - - 30.7 1004.9 0.0
20/05:00pm WNW 6 11 - - - - - - - 31.3 1004.7 0.0
20/04:30pm WNW 6 10 - - - - - - - 31.3 1004.5 0.0
20/04:00pm NW 5 11 - - - - - - - 31.2 1004.6 0.0
20/03:30pm NW 5 9 - - - - - - - 31.1 1005.3 0.0
20/03:00pm NW 4 8 - - - - - - - 30.7 1006.0 0.0
20/02:30pm NW 5 8 - - - - - - - 30.1 1006.4 0.0
20/02:00pm WNW 5 9 - - - - - - - 30.5 1006.5 0.0
20/01:30pm WNW 6 11 - - - - - - - 30.6 1006.7 0.0
20/01:00pm WNW 6 9 - - - - - - - 30.0 1007.2 0.0
20/12:30pm NW 5 9 - - - - - - - 30.0 1007.5 0.0
20/12:00pm WNW 5 9 - - - - - - - 29.4 1007.9 0.0
20/11:30am WNW 6 9 - - - - - - - 29.4 1007.8 0.0
20/11:00am W 7 11 - - - - - - - 29.1 1007.9 0.0
20/10:30am W 7 11 - - - - - - - 29.7 1007.8 0.0
20/10:00am W 7 9 - - - - - - - 28.2 1007.7 0.0
20/09:30am W 7 9 - - - - - - - 27.5 1008.0 0.0
20/09:00am WSW 5 7 - - - - - - - 26.9 1008.1 -
20/08:30am SW 4 7 - - - - - - - 26.6 1007.7 -
20/08:00am SSW 5 8 - - - - - - - 26.4 1007.2 -
20/07:30am SW 5 9 - - - - - - - 26.2 1006.8 -
20/07:00am SW 5 10 - - - - - - - 25.9 1006.5 -
20/06:30am SSW 6 10 - - - - - - - 25.9 1006.2 -
20/06:00am SW 5 9 - - - - - - - 26.1 1006.3 -
20/05:30am SW 5 6 - - - - - - - 26.1 1006.4 -
20/05:00am WSW 5 8 - - - - - - - 26.6 1005.6 -
20/04:30am WSW 6 10 - - - - - - - 27.0 1004.9 -
20/04:00am SW 3 4 - - - - - - - 26.8 1004.6 -
20/03:30am W 4 6 - - - - - - - 26.6 1004.5 -
20/03:00am W 6 10 - - - - - - - 26.5 1004.9 0.4
20/02:30am W 9 12 - - - - - - - 26.5 1005.4 -
20/02:00am WSW 8 11 - - - - - - - 26.8 1006.0 -
20/01:30am W 9 13 - - - - - - - 26.9 1006.9 -
20/01:00am W 8 11 - - - - - - - 27.2 1007.5 -
20/12:30am W 8 10 - - - - - - - 27.1 1008.0 -
20/12:00am W 9 12 - - - - - - - 26.7 1008.0 -
 
Date/Time
CST
Wind Sea
Height
m
Swell Vis
km
Cloud Weather Temp
°C
Press
hPa
Rain since
9am
mm
Dir  Spd
kts
Gust
kts
Height
m
Period
s
Dir
19/11:30pm W 7 9 - - - - - - - 26.7 1008.0 -
19/11:00pm S 2 3 - - - - - - - 26.4 1007.9 -
19/10:30pm ESE 1 4 - - - - - - - 26.3 1008.1 -
19/10:00pm ESE 5 8 - - - - - - - 26.1 1007.7 -
19/09:30pm ESE 7 9 - - - - - - - 25.8 1007.9 -
19/09:00pm SE 8 11 - - - - - - Rain 25.7 1007.8 3.0
19/08:30pm S 10 15 - - - - - - - 28.5 1006.7 -

Other formats

Comma delimited format used in spreadsheet applications
http://www.bom.gov.au/fwo/IDD60701/IDD60701.94139.axf

JavaScript Object Notation format (JSON) in row-major order
http://www.bom.gov.au/fwo/IDD60701/IDD60701.94139.json

Data quality

Most of these data are generated automatically and are frequently updated. Quality checks on data are not normally performed. It is possible for incorrect values to appear. Refer to information at About Latest Weather Observations and please check the disclaimer before using these data.